Time;durP1;ratioP1;P1;durP2;ratioP2;P2;SDS_P1;SDS_P2;PMS_P1;PMS_P2;Temp;Humidity;BMP_temperature;BMP_pressure;BME280_temperature;BME280_humidity;BME280_pressure;Samples;Min_cycle;Max_cycle;Signal;HPM_P1;HPM_P2
2021/04/04 00:01:30;;;;;;;8.43;4.93;;;;;;;;;;5011821;28;20515;-69
2021/04/04 00:03:56;;;;;;;6.37;4.80;;;;;;;;;;5013336;28;20420;-68
2021/04/04 00:06:22;;;;;;;9.47;5.00;;;;;;;;;;5010497;28;20404;-68
2021/04/04 00:08:49;;;;;;;14.80;4.10;;;;;;;;;;4994031;28;20406;-69
2021/04/04 00:11:15;;;;;;;6.00;4.10;;;;;;;;;;4993989;28;20479;-68
2021/04/04 00:13:42;;;;;;;7.87;4.40;;;;;;;;;;5013843;28;20405;-68
2021/04/04 00:16:08;;;;;;;7.13;4.53;;;;;;;;;;5013009;28;20455;-69
2021/04/04 00:18:34;;;;;;;14.60;4.97;;;;;;;;;;5013056;28;20417;-68
2021/04/04 00:21:00;;;;;;;6.60;4.30;;;;;;;;;;5012380;28;20464;-69
2021/04/04 00:23:26;;;;;;;8.07;4.90;;;;;;;;;;4994144;28;20537;-69
2021/04/04 00:25:52;;;;;;;5.80;4.20;;;;;;;;;;4993933;28;20406;-69
2021/04/04 00:28:18;;;;;;;8.67;4.50;;;;;;;;;;5024484;28;20864;-69
2021/04/04 00:30:44;;;;;;;9.33;4.20;;;;;;;;;;5013286;28;20470;-69
2021/04/04 00:33:10;;;;;;;5.10;3.77;;;;;;;;;;5012281;28;20447;-68
2021/04/04 00:35:36;;;;;;;7.67;4.30;;;;;;;;;;5013231;28;20397;-68
2021/04/04 00:38:03;;;;;;;8.53;4.73;;;;;;;;;;5012471;28;20493;-68
2021/04/04 00:40:33;;;;;;;6.27;4.27;;;;;;;;;;5013202;28;20839;-69
2021/04/04 00:42:59;;;;;;;6.80;4.53;;;;;;;;;;5012430;28;20438;-69
2021/04/04 00:45:29;;;;;;;7.87;3.90;;;;;;;;;;5013376;28;20410;-68
2021/04/04 00:47:56;;;;;;;5.43;4.03;;;;;;;;;;5013228;28;20433;-68
2021/04/04 00:50:23;;;;;;;6.30;3.80;;;;;;;;;;5014564;28;20415;-68
2021/04/04 00:52:49;;;;;;;8.10;4.60;;;;;;;;;;5031494;28;20462;-68
2021/04/04 00:55:16;;;;;;;8.47;4.13;;;;;;;;;;5017394;28;20790;-68
2021/04/04 00:57:43;;;;;;;9.17;5.27;;;;;;;;;;5005844;28;20434;-68
2021/04/04 01:00:10;;;;;;;7.20;4.10;;;;;;;;;;4997366;28;20473;-68
2021/04/04 01:02:37;;;;;;;7.33;4.20;;;;;;;;;;4998007;28;20502;-68
2021/04/04 01:05:05;;;;;;;10.07;4.70;;;;;;;;;;4997650;28;20459;-68
2021/04/04 01:07:33;;;;;;;9.80;4.10;;;;;;;;;;5005337;28;20500;-68
2021/04/04 01:09:59;;;;;;;8.30;4.00;;;;;;;;;;5016826;28;20769;-69
2021/04/04 01:12:31;;;;;;;4.47;3.67;;;;;;;;;;5015690;28;20820;-69
2021/04/04 01:15:01;;;;;;;8.50;5.03;;;;;;;;;;5016708;28;20416;-71
2021/04/04 01:17:29;;;;;;;7.80;5.27;;;;;;;;;;5015819;28;20465;-68
2021/04/04 01:19:58;;;;;;;8.47;4.43;;;;;;;;;;5017407;28;20820;-68
2021/04/04 01:22:42;;;;;;;8.23;4.67;;;;;;;;;;5015532;28;20448;-69
2021/04/04 01:25:13;;;;;;;7.93;4.00;;;;;;;;;;5016580;28;20427;-68
2021/04/04 01:27:47;;;;;;;6.70;3.80;;;;;;;;;;5015452;28;20423;-68
2021/04/04 01:30:16;;;;;;;10.60;4.20;;;;;;;;;;5016395;28;20396;-68
2021/04/04 01:32:42;;;;;;;7.53;4.40;;;;;;;;;;5014409;28;20447;-68
2021/04/04 01:35:10;;;;;;;10.00;4.10;;;;;;;;;;5015342;28;20437;-68
2021/04/04 01:37:37;;;;;;;12.33;4.57;;;;;;;;;;5015132;28;20421;-68
2021/04/04 01:40:05;;;;;;;6.43;3.80;;;;;;;;;;5016585;28;20491;-68
2021/04/04 01:42:32;;;;;;;7.87;4.10;;;;;;;;;;5015035;28;20455;-69
2021/04/04 01:44:59;;;;;;;7.03;4.47;;;;;;;;;;5015862;28;20896;-69
2021/04/04 01:47:25;;;;;;;9.83;4.30;;;;;;;;;;5014518;28;20397;-68
2021/04/04 01:49:53;;;;;;;7.97;4.70;;;;;;;;;;5014911;28;20794;-68
2021/04/04 01:52:19;;;;;;;9.97;4.03;;;;;;;;;;5014579;28;20490;-68
2021/04/04 01:54:45;;;;;;;10.47;5.40;;;;;;;;;;4996360;28;20420;-68
2021/04/04 01:57:12;;;;;;;7.93;4.30;;;;;;;;;;4996276;28;20405;-68
2021/04/04 01:59:38;;;;;;;8.50;4.60;;;;;;;;;;4996703;28;20458;-67
2021/04/04 02:02:05;;;;;;;6.30;4.43;;;;;;;;;;4998355;28;20432;-68
2021/04/04 02:04:32;;;;;;;12.40;4.17;;;;;;;;;;5014715;28;20766;-67
2021/04/04 02:06:58;;;;;;;8.20;3.77;;;;;;;;;;5030703;28;20440;-68
2021/04/04 02:09:25;;;;;;;7.23;5.27;;;;;;;;;;5014582;28;20424;-68
2021/04/04 02:11:51;;;;;;;6.27;3.90;;;;;;;;;;5015501;28;20520;-68
2021/04/04 02:14:20;;;;;;;11.13;6.27;;;;;;;;;;5014311;28;20417;-68
2021/04/04 02:16:47;;;;;;;7.00;4.37;;;;;;;;;;5015997;28;20807;-68
2021/04/04 02:19:14;;;;;;;7.30;4.67;;;;;;;;;;5029691;28;20479;-68
2021/04/04 02:21:41;;;;;;;16.00;5.17;;;;;;;;;;5015154;28;20460;-68
2021/04/04 02:24:07;;;;;;;8.23;4.67;;;;;;;;;;5014035;28;20467;-68
2021/04/04 02:26:34;;;;;;;6.80;4.40;;;;;;;;;;5006618;28;20430;-68
2021/04/04 02:29:01;;;;;;;11.37;4.67;;;;;;;;;;4995613;28;20421;-68
2021/04/04 02:31:30;;;;;;;7.93;4.70;;;;;;;;;;4995711;28;20911;-68
2021/04/04 02:33:57;;;;;;;15.40;5.13;;;;;;;;;;5007354;28;20453;-68
2021/04/04 02:36:25;;;;;;;5.97;4.03;;;;;;;;;;5013921;28;20425;-68
2021/04/04 02:38:54;;;;;;;6.50;4.40;;;;;;;;;;5003067;28;20467;-68
2021/04/04 02:41:21;;;;;;;7.27;4.60;;;;;;;;;;4995306;28;20454;-68
2021/04/04 02:43:50;;;;;;;8.10;4.97;;;;;;;;;;5005854;28;20419;-68
2021/04/04 02:46:17;;;;;;;7.00;5.10;;;;;;;;;;5014878;28;20794;-68
2021/04/04 02:49:03;;;;;;;7.23;5.60;;;;;;;;;;5013874;28;20426;-68
2021/04/04 02:51:43;;;;;;;5.40;3.93;;;;;;;;;;5014570;28;20817;-68
2021/04/04 02:54:11;;;;;;;13.80;5.13;;;;;;;;;;5001187;28;20455;-67
2021/04/04 02:56:38;;;;;;;7.73;3.97;;;;;;;;;;4995154;28;20910;-68
2021/04/04 02:59:09;;;;;;;6.37;4.03;;;;;;;;;;5006031;28;20424;-68
2021/04/04 03:01:35;;;;;;;7.60;4.43;;;;;;;;;;5028594;28;20482;-68
2021/04/04 03:04:04;;;;;;;5.80;4.53;;;;;;;;;;5013619;28;20521;-68
2021/04/04 03:06:31;;;;;;;7.97;4.33;;;;;;;;;;5014844;28;20403;-68
2021/04/04 03:08:57;;;;;;;7.47;4.77;;;;;;;;;;5013565;28;20442;-69
2021/04/04 03:11:23;;;;;;;6.47;3.73;;;;;;;;;;5014380;28;20433;-69
2021/04/04 03:13:51;;;;;;;7.37;4.97;;;;;;;;;;5013145;28;20427;-69
2021/04/04 03:16:18;;;;;;;7.73;4.63;;;;;;;;;;5014531;28;20412;-69
2021/04/04 03:18:45;;;;;;;12.93;5.53;;;;;;;;;;5013717;28;20429;-68
2021/04/04 03:21:12;;;;;;;7.80;4.83;;;;;;;;;;5014082;28;20444;-68
2021/04/04 03:23:38;;;;;;;12.17;4.20;;;;;;;;;;5005621;28;20436;-68
2021/04/04 03:26:05;;;;;;;8.93;4.70;;;;;;;;;;4994479;28;20571;-68
2021/04/04 03:28:31;;;;;;;9.13;4.60;;;;;;;;;;4999938;28;20454;-68
2021/04/04 03:30:57;;;;;;;7.90;4.73;;;;;;;;;;5014078;28;20415;-68
2021/04/04 03:33:24;;;;;;;7.83;4.37;;;;;;;;;;5009919;28;20443;-68
2021/04/04 03:35:51;;;;;;;13.20;4.40;;;;;;;;;;5029286;28;20505;-68
2021/04/04 03:38:19;;;;;;;9.97;5.70;;;;;;;;;;5014005;28;20776;-68
2021/04/04 03:40:45;;;;;;;8.60;4.23;;;;;;;;;;5012902;28;20467;-68
2021/04/04 03:43:16;;;;;;;8.00;4.50;;;;;;;;;;5013788;28;20787;-68
2021/04/04 03:45:42;;;;;;;8.23;4.70;;;;;;;;;;5012880;28;20438;-68
2021/04/04 03:48:09;;;;;;;6.77;4.20;;;;;;;;;;5013848;28;20408;-68
2021/04/04 03:50:36;;;;;;;8.60;5.50;;;;;;;;;;5012709;28;20428;-68
2021/04/04 03:53:03;;;;;;;6.80;4.13;;;;;;;;;;5013441;28;20447;-68
2021/04/04 03:55:29;;;;;;;10.90;4.83;;;;;;;;;;5012480;28;20442;-68
2021/04/04 03:57:57;;;;;;;6.67;3.70;;;;;;;;;;5013763;28;20439;-68
2021/04/04 04:00:24;;;;;;;10.37;5.90;;;;;;;;;;4998087;28;20461;-68
2021/04/04 04:02:51;;;;;;;7.23;5.10;;;;;;;;;;5009138;28;20971;-68
2021/04/04 04:05:21;;;;;;;8.27;5.13;;;;;;;;;;4994305;28;20421;-68
2021/04/04 04:07:48;;;;;;;10.00;4.13;;;;;;;;;;4997642;28;20977;-69
2021/04/04 04:10:17;;;;;;;9.83;5.53;;;;;;;;;;4999606;28;20934;-68
2021/04/04 04:12:45;;;;;;;14.23;5.70;;;;;;;;;;4994078;28;20512;-68
2021/04/04 04:15:13;;;;;;;10.30;5.50;;;;;;;;;;5006518;28;20431;-68
2021/04/04 04:17:40;;;;;;;8.67;4.80;;;;;;;;;;5014205;28;20458;-68
2021/04/04 04:20:07;;;;;;;10.00;4.33;;;;;;;;;;5012511;28;20466;-68
2021/04/04 04:22:33;;;;;;;8.03;4.70;;;;;;;;;;5013493;28;20456;-68
2021/04/04 04:24:59;;;;;;;12.07;5.57;;;;;;;;;;5012273;28;20521;-68
2021/04/04 04:27:26;;;;;;;11.90;5.07;;;;;;;;;;5018005;28;20888;-68
2021/04/04 04:29:52;;;;;;;7.40;4.30;;;;;;;;;;5016756;28;20432;-68
2021/04/04 04:32:20;;;;;;;6.60;4.40;;;;;;;;;;5017401;28;20454;-68
2021/04/04 04:34:47;;;;;;;10.30;4.70;;;;;;;;;;5030579;28;20520;-68
2021/04/04 04:37:13;;;;;;;9.43;4.43;;;;;;;;;;5017409;28;20400;-68
2021/04/04 04:39:40;;;;;;;10.63;4.80;;;;;;;;;;5009257;28;20512;-68
2021/04/04 04:42:09;;;;;;;9.90;5.27;;;;;;;;;;4997552;28;20813;-68
2021/04/04 04:44:35;;;;;;;8.03;4.13;;;;;;;;;;5003701;28;20430;-68
2021/04/04 04:47:02;;;;;;;10.50;4.60;;;;;;;;;;5017533;28;20505;-67
2021/04/04 04:49:28;;;;;;;11.40;4.80;;;;;;;;;;5010977;28;20807;-67
2021/04/04 04:51:54;;;;;;;8.10;5.50;;;;;;;;;;5028245;23;20528;-70
2021/04/04 04:54:20;;;;;;;7.30;4.57;;;;;;;;;;5036036;28;20787;-69
2021/04/04 04:56:48;;;;;;;7.70;5.07;;;;;;;;;;5035244;28;20396;-70
2021/04/04 04:59:14;;;;;;;12.03;5.10;;;;;;;;;;5036017;28;20857;-70
2021/04/04 05:01:50;;;;;;;6.40;4.17;;;;;;;;;;5036707;28;20446;-70
2021/04/04 05:04:16;;;;;;;12.50;4.70;;;;;;;;;;5035658;28;20441;-70
2021/04/04 05:06:52;;;;;;;7.47;4.93;;;;;;;;;;5035284;28;20782;-70
2021/04/04 05:09:18;;;;;;;12.73;4.60;;;;;;;;;;5036095;28;20429;-70
2021/04/04 05:11:45;;;;;;;9.83;4.70;;;;;;;;;;5036618;28;20424;-70
2021/04/04 05:14:12;;;;;;;9.87;5.20;;;;;;;;;;5034608;28;20428;-70
2021/04/04 05:16:38;;;;;;;11.37;5.10;;;;;;;;;;5033763;28;20447;-69
2021/04/04 05:19:06;;;;;;;8.83;4.87;;;;;;;;;;5035508;28;20780;-69
2021/04/04 05:21:32;;;;;;;7.47;4.57;;;;;;;;;;5036130;28;20488;-70
2021/04/04 05:23:59;;;;;;;11.53;4.33;;;;;;;;;;5035245;28;20410;-69
2021/04/04 05:26:29;;;;;;;11.77;4.97;;;;;;;;;;5034647;28;20408;-69
2021/04/04 05:28:55;;;;;;;9.07;5.10;;;;;;;;;;5035451;28;20902;-69
2021/04/04 05:31:22;;;;;;;9.30;5.50;;;;;;;;;;5036032;28;20436;-70
2021/04/04 05:33:48;;;;;;;10.03;4.67;;;;;;;;;;5036107;28;20400;-70
2021/04/04 05:36:15;;;;;;;8.93;5.00;;;;;;;;;;5034534;28;20426;-70
2021/04/04 05:38:41;;;;;;;6.30;4.00;;;;;;;;;;5034653;28;20460;-70
2021/04/04 05:41:07;;;;;;;8.20;4.70;;;;;;;;;;5034454;28;20476;-70
2021/04/04 05:43:37;;;;;;;8.57;5.00;;;;;;;;;;5034405;28;20444;-70
2021/04/04 05:46:03;;;;;;;6.70;4.03;;;;;;;;;;5034745;28;20497;-70
2021/04/04 05:48:40;;;;;;;12.00;5.40;;;;;;;;;;5034572;28;20783;-70
2021/04/04 05:51:21;;;;;;;8.43;3.73;;;;;;;;;;5034721;28;20435;-70
2021/04/04 05:53:47;;;;;;;8.03;4.83;;;;;;;;;;5035319;28;20498;-70
2021/04/04 05:56:16;;;;;;;8.67;4.70;;;;;;;;;;5034102;28;20919;-70
2021/04/04 05:59:06;;;;;;;7.60;4.10;;;;;;;;;;5035677;28;20813;-70
2021/04/04 06:01:32;;;;;;;8.83;5.53;;;;;;;;;;5025924;28;20537;-70
2021/04/04 06:04:17;;;;;;;11.97;5.93;;;;;;;;;;5035393;28;20412;-69
2021/04/04 06:07:12;;;;;;;7.53;4.80;;;;;;;;;;5015860;28;20486;-69
2021/04/04 06:09:57;;;;;;;7.97;4.67;;;;;;;;;;5005486;28;20458;-69
2021/04/04 06:12:37;;;;;;;9.23;4.53;;;;;;;;;;5035667;28;20421;-70
2021/04/04 06:15:03;;;;;;;11.50;5.03;;;;;;;;;;5033865;28;20423;-70
2021/04/04 06:17:33;;;;;;;12.03;5.33;;;;;;;;;;5035077;28;20433;-69
2021/04/04 06:20:31;;;;;;;10.43;4.70;;;;;;;;;;5030595;28;20516;-70
2021/04/04 06:23:03;;;;;;;7.80;4.47;;;;;;;;;;5004649;28;20455;-71
2021/04/04 06:25:29;;;;;;;7.57;4.47;;;;;;;;;;5032570;28;20456;-72
2021/04/04 06:27:58;;;;;;;9.60;5.30;;;;;;;;;;5015264;28;20479;-71
2021/04/04 06:33:31;;;;;;;8.90;4.97;;;;;;;;;;5012354;28;20540;-69
2021/04/04 06:36:05;;;;;;;8.53;5.07;;;;;;;;;;5031293;28;20432;-69
2021/04/04 06:38:50;;;;;;;9.53;5.50;;;;;;;;;;5034527;28;20413;-69
2021/04/04 06:41:28;;;;;;;13.23;4.40;;;;;;;;;;5028696;28;20464;-70
2021/04/04 06:44:02;;;;;;;6.20;4.50;;;;;;;;;;5029737;28;20977;-70
2021/04/04 06:46:41;;;;;;;16.40;5.30;;;;;;;;;;5032765;28;20931;-70
2021/04/04 06:49:23;;;;;;;7.97;5.20;;;;;;;;;;5031596;28;20818;-70
2021/04/04 06:52:07;;;;;;;9.33;5.30;;;;;;;;;;5032526;28;20448;-70
2021/04/04 06:54:39;;;;;;;12.37;5.33;;;;;;;;;;5032023;28;20798;-70
2021/04/04 06:57:10;;;;;;;8.20;4.40;;;;;;;;;;5032287;28;20789;-70
2021/04/04 06:59:52;;;;;;;8.03;5.80;;;;;;;;;;5028042;28;20475;-68
2021/04/04 07:02:20;;;;;;;7.37;4.40;;;;;;;;;;5034719;28;20447;-70
2021/04/04 07:04:52;;;;;;;10.30;4.80;;;;;;;;;;5033779;28;20420;-69
2021/04/04 07:07:18;;;;;;;10.63;5.20;;;;;;;;;;5034222;28;20457;-69
2021/04/04 07:09:44;;;;;;;13.20;5.30;;;;;;;;;;5034249;28;20407;-69
2021/04/04 07:12:10;;;;;;;15.83;5.60;;;;;;;;;;5035557;28;20438;-68
2021/04/04 07:14:40;;;;;;;5.47;3.83;;;;;;;;;;5033819;28;20420;-69
2021/04/04 07:17:15;;;;;;;8.53;5.43;;;;;;;;;;5035069;28;20776;-69
2021/04/04 07:19:56;;;;;;;8.60;5.10;;;;;;;;;;5033777;28;20412;-68
2021/04/04 07:22:38;;;;;;;6.80;4.70;;;;;;;;;;5034842;28;20453;-69
2021/04/04 07:25:28;;;;;;;6.50;4.97;;;;;;;;;;5031823;28;20490;-69
2021/04/04 07:27:59;;;;;;;11.33;5.70;;;;;;;;;;5026160;28;20429;-71
2021/04/04 07:30:30;;;;;;;7.30;5.07;;;;;;;;;;5030385;28;20441;-70
2021/04/04 07:33:07;;;;;;;6.80;4.50;;;;;;;;;;5033264;28;20791;-68
2021/04/04 07:35:42;;;;;;;10.40;4.87;;;;;;;;;;5032417;28;20951;-69
2021/04/04 07:38:32;;;;;;;9.40;4.80;;;;;;;;;;5033470;28;20412;-69
2021/04/04 07:41:06;;;;;;;7.67;4.20;;;;;;;;;;5024205;28;20487;-69
2021/04/04 07:43:51;;;;;;;8.03;4.60;;;;;;;;;;5033224;28;20421;-69
2021/04/04 07:46:22;;;;;;;11.57;5.70;;;;;;;;;;5031966;28;20420;-69
2021/04/04 07:49:07;;;;;;;8.50;5.17;;;;;;;;;;5033139;28;20384;-69
2021/04/04 07:51:34;;;;;;;5.73;3.90;;;;;;;;;;5032032;28;20426;-69
2021/04/04 07:54:00;;;;;;;8.53;4.23;;;;;;;;;;5032139;28;20446;-69
2021/04/04 07:56:26;;;;;;;12.67;5.67;;;;;;;;;;5032316;28;20504;-69
2021/04/04 07:58:58;;;;;;;7.80;5.07;;;;;;;;;;5031582;28;20413;-69
2021/04/04 08:01:27;;;;;;;8.13;4.90;;;;;;;;;;5031112;28;20537;-69
2021/04/04 08:04:13;;;;;;;7.13;5.10;;;;;;;;;;5030982;28;20433;-69
2021/04/04 08:06:42;;;;;;;7.87;5.03;;;;;;;;;;5031799;28;20906;-69
2021/04/04 08:09:21;;;;;;;6.53;4.07;;;;;;;;;;5033006;28;20408;-69
2021/04/04 08:12:00;;;;;;;7.17;3.50;;;;;;;;;;5031630;28;20457;-69
2021/04/04 08:14:31;;;;;;;6.93;4.03;;;;;;;;;;5033192;28;20387;-69
2021/04/04 08:16:58;;;;;;;8.10;3.30;;;;;;;;;;5031607;28;20433;-69
2021/04/04 08:19:25;;;;;;;5.47;3.10;;;;;;;;;;5032577;28;20414;-69
2021/04/04 08:21:56;;;;;;;9.07;3.70;;;;;;;;;;5031456;28;20470;-69
2021/04/04 08:24:28;;;;;;;6.33;2.63;;;;;;;;;;5032817;28;20724;-69
2021/04/04 08:27:00;;;;;;;6.43;3.70;;;;;;;;;;5031790;28;20431;-69
2021/04/04 08:29:29;;;;;;;5.60;2.87;;;;;;;;;;5032502;28;20419;-69
2021/04/04 08:32:01;;;;;;;5.70;2.97;;;;;;;;;;5031563;28;20456;-69
2021/04/04 08:34:32;;;;;;;3.83;2.60;;;;;;;;;;5030892;28;20494;-69
2021/04/04 08:37:01;;;;;;;6.47;3.00;;;;;;;;;;5031913;28;20944;-69
2021/04/04 08:39:30;;;;;;;5.03;3.07;;;;;;;;;;5030975;28;20415;-69
2021/04/04 08:41:58;;;;;;;2.80;1.93;;;;;;;;;;5030743;28;20988;-69
2021/04/04 08:44:29;;;;;;;6.37;2.77;;;;;;;;;;5032354;28;20747;-69
2021/04/04 08:46:56;;;;;;;7.33;2.63;;;;;;;;;;5031613;28;20878;-69
2021/04/04 08:49:23;;;;;;;5.20;2.20;;;;;;;;;;5032418;28;20898;-69
2021/04/04 08:52:12;;;;;;;4.10;2.27;;;;;;;;;;5031161;28;20463;-69
2021/04/04 08:54:39;;;;;;;4.47;2.23;;;;;;;;;;5032282;28;20412;-69
2021/04/04 08:57:06;;;;;;;3.67;2.23;;;;;;;;;;5030286;28;20929;-69
2021/04/04 08:59:34;;;;;;;2.90;2.10;;;;;;;;;;5032783;28;20865;-69
2021/04/04 09:02:01;;;;;;;8.30;2.70;;;;;;;;;;5031301;28;20489;-68
2021/04/04 09:04:27;;;;;;;4.80;2.60;;;;;;;;;;5031926;28;20467;-69
2021/04/04 09:06:53;;;;;;;3.17;2.40;;;;;;;;;;5031113;28;20507;-69
2021/04/04 09:09:21;;;;;;;7.57;2.70;;;;;;;;;;5030887;28;20922;-69
2021/04/04 09:11:49;;;;;;;3.90;2.50;;;;;;;;;;5030018;28;20463;-69
2021/04/04 09:14:16;;;;;;;5.17;2.90;;;;;;;;;;5035695;28;20429;-69
2021/04/04 09:16:50;;;;;;;5.77;2.80;;;;;;;;;;5034509;28;20475;-69
2021/04/04 09:19:25;;;;;;;5.27;2.50;;;;;;;;;;5035622;28;20681;-69
2021/04/04 09:21:51;;;;;;;4.87;2.90;;;;;;;;;;5034673;28;20555;-69
2021/04/04 09:24:17;;;;;;;3.30;2.13;;;;;;;;;;5033819;28;20446;-68
2021/04/04 09:26:43;;;;;;;4.87;2.60;;;;;;;;;;5034233;28;20441;-69
2021/04/04 09:29:12;;;;;;;4.57;2.97;;;;;;;;;;5035407;28;20400;-68
2021/04/04 09:31:39;;;;;;;5.27;3.30;;;;;;;;;;5034255;28;20751;-67
2021/04/04 09:34:17;;;;;;;5.80;3.20;;;;;;;;;;5035279;28;20400;-70
2021/04/04 09:36:46;;;;;;;8.73;3.20;;;;;;;;;;5033804;28;20394;-69
2021/04/04 09:39:14;;;;;;;5.17;2.63;;;;;;;;;;5035232;28;20970;-69
2021/04/04 09:41:40;;;;;;;4.30;2.77;;;;;;;;;;5034409;28;20903;-69
2021/04/04 09:44:09;;;;;;;5.07;3.33;;;;;;;;;;5035313;28;20551;-69
2021/04/04 09:46:51;;;;;;;4.00;2.63;;;;;;;;;;5033293;28;20792;-69
2021/04/04 09:49:33;;;;;;;4.07;2.57;;;;;;;;;;5015164;28;20459;-69
2021/04/04 09:51:59;;;;;;;4.30;2.80;;;;;;;;;;5018244;28;20460;-69
2021/04/04 09:54:25;;;;;;;4.87;3.27;;;;;;;;;;5034744;28;20386;-69
2021/04/04 09:56:57;;;;;;;5.20;2.73;;;;;;;;;;5033879;28;20427;-69
2021/04/04 09:59:29;;;;;;;9.43;3.60;;;;;;;;;;5035046;28;20692;-69
2021/04/04 10:01:55;;;;;;;3.77;2.73;;;;;;;;;;5033552;28;20456;-69
2021/04/04 10:04:21;;;;;;;5.87;2.93;;;;;;;;;;5034993;28;20412;-69
2021/04/04 10:07:07;;;;;;;6.33;2.90;;;;;;;;;;5033981;28;20398;-69
2021/04/04 10:09:39;;;;;;;3.90;3.10;;;;;;;;;;5034990;28;20804;-69
2021/04/04 10:12:06;;;;;;;4.13;2.17;;;;;;;;;;5032431;28;20441;-69
2021/04/04 10:14:32;;;;;;;3.27;2.23;;;;;;;;;;5034760;28;20409;-69
2021/04/04 10:17:14;;;;;;;6.63;2.60;;;;;;;;;;5033539;28;20429;-69
2021/04/04 10:19:59;;;;;;;4.00;2.17;;;;;;;;;;5032502;28;20768;-69
2021/04/04 10:22:26;;;;;;;5.37;2.60;;;;;;;;;;5031827;28;20456;-69
2021/04/04 10:24:52;;;;;;;5.60;3.27;;;;;;;;;;5033568;28;20899;-68
2021/04/04 10:27:19;;;;;;;3.60;2.87;;;;;;;;;;5029217;28;20421;-68
2021/04/04 10:29:46;;;;;;;3.73;2.90;;;;;;;;;;5014492;28;20914;-67
2021/04/04 10:32:13;;;;;;;3.73;2.43;;;;;;;;;;5018096;28;20468;-68
2021/04/04 10:34:43;;;;;;;3.63;2.50;;;;;;;;;;5032346;28;20416;-68
2021/04/04 10:37:09;;;;;;;5.33;3.10;;;;;;;;;;5013101;28;20413;-69
2021/04/04 10:39:35;;;;;;;5.13;2.57;;;;;;;;;;5014036;28;20483;-68
2021/04/04 10:42:14;;;;;;;4.20;2.70;;;;;;;;;;5032538;28;20468;-70
2021/04/04 10:44:40;;;;;;;6.20;3.00;;;;;;;;;;5031860;28;20413;-68
2021/04/04 10:47:19;;;;;;;3.83;2.30;;;;;;;;;;5034035;28;20466;-68
2021/04/04 10:49:45;;;;;;;4.70;2.70;;;;;;;;;;5033091;28;20424;-69
2021/04/04 10:52:12;;;;;;;6.17;2.77;;;;;;;;;;5114548;23;20448;-67
2021/04/04 10:54:38;;;;;;;3.50;2.40;;;;;;;;;;5034541;28;20552;-68
2021/04/04 10:57:04;;;;;;;5.77;2.90;;;;;;;;;;5015396;28;20493;-68
2021/04/04 10:59:30;;;;;;;4.37;2.73;;;;;;;;;;5015015;28;20400;-68
2021/04/04 11:01:56;;;;;;;4.07;2.70;;;;;;;;;;5014764;28;20474;-67
2021/04/04 11:04:23;;;;;;;4.10;2.50;;;;;;;;;;5015377;28;20419;-67
2021/04/04 11:06:50;;;;;;;8.23;2.67;;;;;;;;;;5031500;28;20425;-67
2021/04/04 11:09:16;;;;;;;3.17;2.00;;;;;;;;;;5034734;28;20791;-67
2021/04/04 11:11:42;;;;;;;3.97;2.20;;;;;;;;;;5018148;28;20906;-67
2021/04/04 11:14:11;;;;;;;4.20;2.50;;;;;;;;;;5014554;28;20413;-67
2021/04/04 11:16:37;;;;;;;3.40;2.50;;;;;;;;;;5029085;28;20526;-67
2021/04/04 11:19:08;;;;;;;3.80;2.83;;;;;;;;;;5034341;28;20815;-68
2021/04/04 11:21:41;;;;;;;4.17;2.40;;;;;;;;;;5033376;28;20449;-68
2021/04/04 11:24:12;;;;;;;3.47;2.50;;;;;;;;;;5034587;28;20390;-68
2021/04/04 11:26:38;;;;;;;6.83;3.17;;;;;;;;;;5018702;28;20526;-68
2021/04/04 11:29:17;;;;;;;4.93;3.03;;;;;;;;;;5014838;28;20419;-68
2021/04/04 11:31:44;;;;;;;6.33;2.90;;;;;;;;;;5029160;28;20440;-68
2021/04/04 11:34:30;;;;;;;6.80;2.87;;;;;;;;;;5033992;28;20410;-69
2021/04/04 11:36:56;;;;;;;5.37;3.20;;;;;;;;;;5029950;28;20465;-69
2021/04/04 11:39:23;;;;;;;6.27;3.70;;;;;;;;;;5032181;28;20964;-68
2021/04/04 11:41:50;;;;;;;5.10;2.90;;;;;;;;;;5029173;28;21049;-68
2021/04/04 11:44:30;;;;;;;4.60;2.57;;;;;;;;;;5033666;28;20442;-67
2021/04/04 11:47:03;;;;;;;3.97;2.33;;;;;;;;;;5032118;28;20428;-67
2021/04/04 11:49:35;;;;;;;3.97;2.73;;;;;;;;;;5033670;28;20939;-68
2021/04/04 11:52:21;;;;;;;4.03;2.53;;;;;;;;;;5031449;28;20807;-68
2021/04/04 11:54:50;;;;;;;4.97;2.70;;;;;;;;;;5033489;28;20445;-68
2021/04/04 11:57:33;;;;;;;3.57;2.60;;;;;;;;;;5032890;28;20463;-68
2021/04/04 12:00:10;;;;;;;5.53;2.97;;;;;;;;;;5030565;28;20427;-69
2021/04/04 12:02:37;;;;;;;5.13;2.57;;;;;;;;;;5013724;28;20418;-68
2021/04/04 12:05:06;;;;;;;5.10;3.03;;;;;;;;;;5013718;28;20407;-69
2021/04/04 12:07:34;;;;;;;6.43;3.33;;;;;;;;;;5014165;28;20417;-69
2021/04/04 12:10:01;;;;;;;4.17;2.87;;;;;;;;;;5013671;28;20765;-69
2021/04/04 12:12:33;;;;;;;4.10;3.00;;;;;;;;;;5013867;28;20438;-68
2021/04/04 12:15:00;;;;;;;4.70;3.07;;;;;;;;;;5013582;28;20751;-68
2021/04/04 12:17:30;;;;;;;3.80;2.77;;;;;;;;;;5032175;28;20426;-68
2021/04/04 12:19:56;;;;;;;7.97;2.80;;;;;;;;;;5033760;28;20457;-69
2021/04/04 12:22:33;;;;;;;5.30;3.10;;;;;;;;;;5032435;28;20585;-69
2021/04/04 12:24:59;;;;;;;3.83;2.70;;;;;;;;;;5033485;28;20417;-68
2021/04/04 12:27:26;;;;;;;3.50;2.53;;;;;;;;;;5014429;28;20441;-68
2021/04/04 12:29:53;;;;;;;8.13;2.60;;;;;;;;;;5012324;28;20776;-68
2021/04/04 12:32:24;;;;;;;3.27;2.33;;;;;;;;;;5031031;28;20454;-70
2021/04/04 12:34:51;;;;;;;6.10;3.13;;;;;;;;;;5020817;28;20495;-70
2021/04/04 12:37:19;;;;;;;7.60;3.47;;;;;;;;;;5030097;28;20486;-69
2021/04/04 12:39:45;;;;;;;3.30;2.30;;;;;;;;;;5033338;28;20425;-68
2021/04/04 12:42:15;;;;;;;4.87;2.90;;;;;;;;;;5031717;28;20479;-68
2021/04/04 12:44:42;;;;;;;7.23;3.53;;;;;;;;;;5033323;28;20552;-69
2021/04/04 12:47:09;;;;;;;6.43;3.10;;;;;;;;;;5034625;28;20436;-69
2021/04/04 12:49:36;;;;;;;3.77;2.17;;;;;;;;;;5037421;28;20402;-69
2021/04/04 12:52:03;;;;;;;6.60;3.10;;;;;;;;;;5036326;28;20439;-69
2021/04/04 12:54:29;;;;;;;5.37;2.80;;;;;;;;;;5036134;28;20458;-68
2021/04/04 12:56:55;;;;;;;3.50;2.37;;;;;;;;;;5035489;28;20438;-68
2021/04/04 12:59:21;;;;;;;4.77;3.37;;;;;;;;;;5036903;28;20402;-67
2021/04/04 13:01:48;;;;;;;4.80;2.87;;;;;;;;;;5024415;28;20470;-69
2021/04/04 13:04:17;;;;;;;4.77;2.77;;;;;;;;;;5017274;28;20406;-69
2021/04/04 13:06:46;;;;;;;8.10;3.47;;;;;;;;;;5028218;28;20767;-68
2021/04/04 13:09:13;;;;;;;6.73;3.80;;;;;;;;;;5017808;28;20484;-68
2021/04/04 13:11:40;;;;;;;6.00;3.00;;;;;;;;;;5027284;28;20781;-67
2021/04/04 13:14:06;;;;;;;5.90;2.97;;;;;;;;;;5036886;28;20437;-68
2021/04/04 13:16:32;;;;;;;4.40;2.73;;;;;;;;;;5035782;28;20827;-68
2021/04/04 13:18:58;;;;;;;9.60;3.00;;;;;;;;;;5036587;28;20405;-69
2021/04/04 13:21:31;;;;;;;3.83;2.60;;;;;;;;;;5028106;28;20472;-67
2021/04/04 13:23:58;;;;;;;3.47;2.47;;;;;;;;;;5017165;28;20514;-68
2021/04/04 13:26:26;;;;;;;5.53;3.23;;;;;;;;;;5024308;28;20437;-68
2021/04/04 13:29:02;;;;;;;4.30;2.63;;;;;;;;;;5037213;28;20479;-69
2021/04/04 13:31:28;;;;;;;6.03;3.37;;;;;;;;;;5028393;28;20982;-68
2021/04/04 13:34:03;;;;;;;4.30;2.80;;;;;;;;;;5017530;28;20436;-68
2021/04/04 13:36:30;;;;;;;4.20;2.80;;;;;;;;;;5022191;28;20468;-68
2021/04/04 13:38:56;;;;;;;6.67;2.20;;;;;;;;;;5036746;28;20916;-67
2021/04/04 13:41:23;;;;;;;3.27;2.20;;;;;;;;;;5031433;28;20555;-68
2021/04/04 13:43:53;;;;;;;5.60;2.90;;;;;;;;;;5016722;28;20423;-69
2021/04/04 13:46:28;;;;;;;5.70;3.10;;;;;;;;;;5016428;28;20393;-68
2021/04/04 13:48:55;;;;;;;3.43;2.47;;;;;;;;;;5016375;28;20416;-68
2021/04/04 13:51:22;;;;;;;2.73;2.10;;;;;;;;;;5015935;28;20484;-68
2021/04/04 13:53:48;;;;;;;4.33;3.10;;;;;;;;;;5016023;28;20472;-68
2021/04/04 13:56:15;;;;;;;4.97;3.13;;;;;;;;;;5014583;28;20434;-68
2021/04/04 13:58:48;;;;;;;6.50;2.80;;;;;;;;;;5035351;28;20462;-68
2021/04/04 14:01:28;;;;;;;5.10;3.17;;;;;;;;;;5033585;28;20497;-69
2021/04/04 14:03:55;;;;;;;7.20;2.37;;;;;;;;;;5016103;28;20520;-68
2021/04/04 14:06:31;;;;;;;4.00;2.20;;;;;;;;;;5016395;28;20396;-68
2021/04/04 14:08:57;;;;;;;4.47;2.40;;;;;;;;;;5035655;28;20394;-68
2021/04/04 14:11:23;;;;;;;4.47;3.53;;;;;;;;;;5034240;28;20773;-69
2021/04/04 14:13:49;;;;;;;3.67;2.43;;;;;;;;;;5016056;28;20833;-68
2021/04/04 14:16:15;;;;;;;8.70;2.40;;;;;;;;;;5015832;28;20432;-69
2021/04/04 14:18:41;;;;;;;4.03;2.70;;;;;;;;;;5035098;28;20885;-68
2021/04/04 14:21:07;;;;;;;4.03;2.57;;;;;;;;;;5036398;28;20614;-68
2021/04/04 14:23:35;;;;;;;5.90;3.47;;;;;;;;;;5016548;28;20911;-68
2021/04/04 14:26:04;;;;;;;3.97;2.50;;;;;;;;;;5014357;28;20415;-68
2021/04/04 14:28:30;;;;;;;6.23;3.20;;;;;;;;;;5015646;28;20434;-68
2021/04/04 14:30:56;;;;;;;3.17;2.43;;;;;;;;;;5015936;28;20421;-68
2021/04/04 14:33:22;;;;;;;5.30;3.13;;;;;;;;;;5027241;28;20454;-68
2021/04/04 14:35:48;;;;;;;3.90;2.53;;;;;;;;;;5015725;28;20491;-68
2021/04/04 14:38:14;;;;;;;5.47;2.93;;;;;;;;;;5015757;28;20435;-69
2021/04/04 14:40:41;;;;;;;4.70;2.47;;;;;;;;;;5014010;28;20556;-68
2021/04/04 14:43:22;;;;;;;3.77;2.70;;;;;;;;;;5028928;28;20470;-68
2021/04/04 14:45:49;;;;;;;5.60;2.70;;;;;;;;;;5032859;28;22525;-69
2021/04/04 14:48:15;;;;;;;5.37;2.60;;;;;;;;;;5034275;28;20426;-69
2021/04/04 14:50:42;;;;;;;7.53;3.03;;;;;;;;;;5035301;28;20433;-69
2021/04/04 14:53:11;;;;;;;6.90;3.20;;;;;;;;;;5033887;28;20961;-69
2021/04/04 14:55:48;;;;;;;5.17;2.50;;;;;;;;;;5035271;28;20499;-69
2021/04/04 14:58:15;;;;;;;8.27;3.73;;;;;;;;;;5032782;28;20496;-69